Time;durP1;ratioP1;P1;durP2;ratioP2;P2;SDS_P1;SDS_P2;PMS_P1;PMS_P2;Temp;Humidity;BMP_temperature;BMP_pressure;BME280_temperature;BME280_humidity;BME280_pressure;Samples;Min_cycle;Max_cycle;Signal;HPM_P1;HPM_P2
2023/03/21 00:00:37;;;;;;;1.80;1.70;;;9.10;99.50;;;;;;5070636;28;20657;-67
2023/03/21 00:03:03;;;;;;;1.50;1.40;;;9.10;99.30;;;;;;5070409;28;20621;-67
2023/03/21 00:05:31;;;;;;;2.07;1.87;;;9.10;99.50;;;;;;5070499;28;21009;-67
2023/03/21 00:07:57;;;;;;;1.00;0.87;;;9.10;99.50;;;;;;5070947;28;20621;-67
2023/03/21 00:10:26;;;;;;;2.27;1.60;;;9.00;99.60;;;;;;5081216;28;21284;-67
2023/03/21 00:12:57;;;;;;;1.67;1.57;;;9.10;99.60;;;;;;5073708;28;21211;-67
2023/03/21 00:15:25;;;;;;;2.47;1.90;;;9.10;99.30;;;;;;5069771;28;20663;-67
2023/03/21 00:17:52;;;;;;;1.93;1.80;;;9.20;99.30;;;;;;5070032;28;20653;-67
2023/03/21 00:20:21;;;;;;;3.40;2.10;;;9.10;99.90;;;;;;5071786;28;20657;-67
2023/03/21 00:22:48;;;;;;;1.67;1.40;;;9.00;99.90;;;;;;5069784;28;20628;-67
2023/03/21 00:25:15;;;;;;;1.67;1.50;;;9.10;99.90;;;;;;5070021;28;20625;-68
2023/03/21 00:27:43;;;;;;;2.50;2.10;;;9.10;99.90;;;;;;5070826;28;20664;-67
2023/03/21 00:30:12;;;;;;;2.23;2.03;;;9.10;99.90;;;;;;5078213;28;20639;-67
2023/03/21 00:32:40;;;;;;;1.80;1.43;;;9.00;99.90;;;;;;5073879;28;21308;-67
2023/03/21 00:35:07;;;;;;;1.57;1.00;;;9.10;99.90;;;;;;5069356;28;20659;-68
2023/03/21 00:37:34;;;;;;;1.83;1.67;;;9.00;99.90;;;;;;5070092;28;21005;-67
2023/03/21 00:40:01;;;;;;;1.13;1.03;;;9.00;99.90;;;;;;5069754;28;20618;-67
2023/03/21 00:42:27;;;;;;;2.90;2.30;;;9.00;99.90;;;;;;5069361;28;20655;-68
2023/03/21 00:44:55;;;;;;;1.87;1.73;;;8.90;99.90;;;;;;5070265;28;20627;-67
2023/03/21 00:47:22;;;;;;;1.90;1.40;;;9.00;99.90;;;;;;5069348;28;20660;-67
2023/03/21 00:49:49;;;;;;;2.27;2.07;;;8.90;99.90;;;;;;5071792;28;20632;-67
2023/03/21 00:52:16;;;;;;;2.40;1.60;;;9.00;99.90;;;;;;5069297;28;20704;-67
2023/03/21 00:54:42;;;;;;;2.27;2.03;;;9.00;99.90;;;;;;5069955;28;20633;-67
2023/03/21 00:57:09;;;;;;;2.43;2.27;;;8.90;99.90;;;;;;5068811;28;20660;-67
2023/03/21 00:59:36;;;;;;;3.00;2.20;;;8.90;99.90;;;;;;5069357;28;20645;-68
2023/03/21 01:02:06;;;;;;;1.40;1.30;;;8.90;99.90;;;;;;5069224;28;20661;-68
2023/03/21 01:04:34;;;;;;;1.67;1.57;;;8.80;99.90;;;;;;5069037;28;20625;-67
2023/03/21 01:07:01;;;;;;;1.10;1.07;;;8.80;99.90;;;;;;5069210;28;20744;-68
2023/03/21 01:09:27;;;;;;;1.97;1.73;;;8.80;99.90;;;;;;5070898;28;20625;-68
2023/03/21 01:11:54;;;;;;;1.63;1.43;;;8.90;99.90;;;;;;5080326;28;20653;-68
2023/03/21 01:14:22;;;;;;;3.33;1.90;;;8.90;99.90;;;;;;5068774;28;20627;-67
2023/03/21 01:16:50;;;;;;;2.90;2.03;;;8.90;99.90;;;;;;5068532;28;20651;-68
2023/03/21 01:19:20;;;;;;;1.50;1.20;;;8.90;99.90;;;;;;5068888;28;20628;-69
2023/03/21 01:21:47;;;;;;;2.63;2.40;;;8.90;99.90;;;;;;5073872;28;21312;-68
2023/03/21 01:24:15;;;;;;;1.97;1.80;;;8.90;99.90;;;;;;5070020;28;20606;-68
2023/03/21 01:26:42;;;;;;;1.43;1.33;;;8.90;99.90;;;;;;5068820;28;20649;-68
2023/03/21 01:29:08;;;;;;;1.70;1.60;;;8.90;99.90;;;;;;5068102;28;20632;-68
2023/03/21 01:31:35;;;;;;;2.80;2.23;;;9.00;99.90;;;;;;5076471;28;20677;-68
2023/03/21 01:34:02;;;;;;;2.07;1.60;;;8.80;99.90;;;;;;5069169;28;20664;-69
2023/03/21 01:36:30;;;;;;;1.67;1.53;;;8.90;99.90;;;;;;5068406;28;20662;-68
2023/03/21 01:38:57;;;;;;;1.93;1.80;;;8.90;99.90;;;;;;5067936;28;20622;-68
2023/03/21 01:41:27;;;;;;;4.50;2.50;;;8.90;99.90;;;;;;5068514;28;20653;-67
2023/03/21 01:43:54;;;;;;;1.87;1.77;;;8.80;99.90;;;;;;5068310;28;20631;-67
2023/03/21 01:46:40;;;;;;;2.37;2.17;;;8.80;99.90;;;;;;5068139;28;20637;-68
2023/03/21 01:49:12;;;;;;;3.33;3.03;;;8.80;99.90;;;;;;5068330;28;20639;-67
2023/03/21 01:51:43;;;;;;;1.70;1.60;;;8.80;99.90;;;;;;5068342;28;20848;-67
2023/03/21 01:54:15;;;;;;;4.07;2.53;;;8.80;99.90;;;;;;5068614;28;20771;-67
2023/03/21 01:56:45;;;;;;;1.67;1.57;;;8.80;99.90;;;;;;5067711;28;20645;-68
2023/03/21 01:59:17;;;;;;;2.20;2.00;;;8.80;99.90;;;;;;5068106;28;20726;-67
2023/03/21 02:01:45;;;;;;;1.37;1.10;;;8.80;99.90;;;;;;5067889;28;20649;-67
2023/03/21 02:04:12;;;;;;;1.30;1.20;;;8.90;99.90;;;;;;5067584;28;20628;-66
2023/03/21 02:06:46;;;;;;;2.77;2.57;;;8.90;99.90;;;;;;5066175;28;20653;-68
2023/03/21 02:09:18;;;;;;;1.60;1.23;;;8.90;99.90;;;;;;5067219;28;20618;-68
2023/03/21 02:11:46;;;;;;;2.97;1.60;;;8.80;99.90;;;;;;5068306;28;20649;-68
2023/03/21 02:14:16;;;;;;;6.57;1.70;;;8.80;99.90;;;;;;5068144;28;20664;-68
2023/03/21 02:16:52;;;;;;;1.77;1.53;;;8.70;99.90;;;;;;5067579;28;20687;-68
2023/03/21 02:19:51;;;;;;;3.20;3.00;;;8.80;99.90;;;;;;5067228;28;20625;-67
2023/03/21 02:23:00;;;;;;;2.00;1.47;;;8.70;99.90;;;;;;5063981;28;20652;-68
2023/03/21 02:25:57;;;;;;;2.10;1.63;;;8.70;99.90;;;;;;5005534;28;20647;-68
2023/03/21 02:28:30;;;;;;;2.13;1.50;;;8.70;99.90;;;;;;5062556;28;20986;-67
2023/03/21 02:31:17;;;;;;;1.67;1.57;;;8.70;99.90;;;;;;5068344;28;20641;-67
2023/03/21 02:34:09;;;;;;;2.40;1.10;;;8.70;99.90;;;;;;5068021;28;21330;-67
2023/03/21 02:37:01;;;;;;;3.73;2.53;;;8.80;99.90;;;;;;5067287;28;20870;-67
2023/03/21 02:39:34;;;;;;;2.03;1.83;;;8.70;99.90;;;;;;5067328;28;20728;-67
2023/03/21 02:42:07;;;;;;;1.13;1.13;;;8.70;99.90;;;;;;5067157;28;20698;-67
2023/03/21 02:44:43;;;;;;;2.50;2.30;;;8.70;99.90;;;;;;5067545;28;20618;-67
2023/03/21 02:47:14;;;;;;;1.93;1.20;;;8.80;99.90;;;;;;5067296;28;20645;-67
2023/03/21 02:49:49;;;;;;;1.80;0.93;;;8.70;99.90;;;;;;5078170;28;21178;-67
2023/03/21 02:52:22;;;;;;;2.70;1.60;;;8.70;99.90;;;;;;5076457;28;21286;-69
2023/03/21 02:54:50;;;;;;;2.40;1.40;;;8.70;99.90;;;;;;5061082;28;20664;-67
2023/03/21 02:57:20;;;;;;;5.03;1.47;;;8.70;99.90;;;;;;5067095;28;20677;-67
2023/03/21 02:59:50;;;;;;;1.73;1.50;;;8.70;99.90;;;;;;5073633;28;20630;-67
2023/03/21 03:02:23;;;;;;;1.30;0.90;;;8.70;99.90;;;;;;5067251;28;20653;-68
2023/03/21 03:04:49;;;;;;;1.93;1.83;;;8.70;99.90;;;;;;5077720;28;20629;-67
2023/03/21 03:07:28;;;;;;;2.77;2.03;;;8.70;99.90;;;;;;5066111;28;20641;-70
2023/03/21 03:10:15;;;;;;;1.90;1.80;;;8.70;99.90;;;;;;5079358;28;21248;-68
2023/03/21 03:12:49;;;;;;;1.67;1.00;;;8.70;99.90;;;;;;5068481;28;20741;-68
2023/03/21 03:15:28;;;;;;;1.70;1.60;;;8.70;99.90;;;;;;5066029;28;20641;-68
2023/03/21 03:18:02;;;;;;;1.40;1.20;;;8.70;99.90;;;;;;5065356;28;20649;-68
2023/03/21 03:20:38;;;;;;;3.97;1.53;;;8.60;99.90;;;;;;5067352;28;20756;-67
2023/03/21 03:23:17;;;;;;;0.60;0.60;;;8.60;99.90;;;;;;5066718;28;20637;-68
2023/03/21 03:25:48;;;;;;;1.57;1.47;;;8.60;99.90;;;;;;5066934;28;20671;-68
2023/03/21 03:28:21;;;;;;;1.40;1.23;;;8.60;99.90;;;;;;5065825;28;20690;-70
2023/03/21 03:30:50;;;;;;;1.57;1.47;;;8.60;99.90;;;;;;5067141;28;20649;-68
2023/03/21 03:33:22;;;;;;;1.80;1.40;;;8.60;99.90;;;;;;5066877;28;20783;-68
2023/03/21 03:35:51;;;;;;;1.37;1.27;;;8.70;99.90;;;;;;5067008;28;20642;-67
2023/03/21 03:38:22;;;;;;;1.87;1.77;;;8.70;99.90;;;;;;5066503;28;20642;-68
2023/03/21 03:40:53;;;;;;;1.97;1.73;;;8.70;99.90;;;;;;5075428;28;20677;-68
2023/03/21 03:43:26;;;;;;;1.60;1.50;;;8.70;99.90;;;;;;5066940;28;20671;-68
2023/03/21 03:45:59;;;;;;;1.53;1.30;;;8.70;99.90;;;;;;5066861;28;21038;-68
2023/03/21 03:48:32;;;;;;;1.37;1.03;;;8.70;99.90;;;;;;5065036;28;20639;-67
2023/03/21 03:51:06;;;;;;;1.07;1.03;;;8.70;99.90;;;;;;5079126;28;20677;-68
2023/03/21 03:53:41;;;;;;;2.43;1.70;;;8.60;99.90;;;;;;5066550;28;21030;-68
2023/03/21 03:56:10;;;;;;;1.87;1.40;;;8.70;99.90;;;;;;5066958;28;20685;-68
2023/03/21 03:58:38;;;;;;;2.13;1.27;;;8.70;99.90;;;;;;5066079;28;20626;-69
2023/03/21 04:01:07;;;;;;;2.70;1.80;;;8.60;99.90;;;;;;5069483;28;20657;-68
2023/03/21 04:03:38;;;;;;;3.27;2.40;;;8.60;99.90;;;;;;5065954;28;20633;-67
2023/03/21 04:06:06;;;;;;;1.23;1.23;;;8.50;99.90;;;;;;5067072;28;20888;-67
2023/03/21 04:08:32;;;;;;;2.53;1.90;;;8.60;99.90;;;;;;5065823;28;20606;-69
2023/03/21 04:11:01;;;;;;;1.60;1.37;;;8.50;99.90;;;;;;5066686;28;20656;-68
2023/03/21 04:13:28;;;;;;;2.00;1.57;;;8.50;99.90;;;;;;5066661;28;20771;-68
2023/03/21 04:15:55;;;;;;;2.93;1.77;;;8.50;99.90;;;;;;5066357;28;20661;-68
2023/03/21 04:18:23;;;;;;;1.93;1.83;;;8.40;99.90;;;;;;5065710;28;21612;-67
2023/03/21 04:20:50;;;;;;;6.40;1.23;;;8.40;99.90;;;;;;5085076;28;20737;-68
2023/03/21 04:23:17;;;;;;;2.30;1.60;;;8.40;99.90;;;;;;5067729;28;20636;-68
2023/03/21 04:25:45;;;;;;;1.23;1.10;;;8.40;99.90;;;;;;5067261;28;20706;-68
2023/03/21 04:28:13;;;;;;;1.93;1.40;;;8.30;99.90;;;;;;5069174;28;20724;-67
2023/03/21 04:30:40;;;;;;;1.37;1.27;;;8.30;99.90;;;;;;5071184;28;21221;-68
2023/03/21 04:33:07;;;;;;;1.87;1.70;;;8.30;99.90;;;;;;5070157;28;20755;-68
2023/03/21 04:35:35;;;;;;;4.80;2.73;;;8.20;99.90;;;;;;5070323;28;20649;-68
2023/03/21 04:38:02;;;;;;;2.40;1.50;;;8.20;99.90;;;;;;5069804;28;20632;-67
2023/03/21 04:40:29;;;;;;;2.17;1.80;;;8.20;99.90;;;;;;5069964;28;20671;-67
2023/03/21 04:42:56;;;;;;;1.27;1.23;;;8.10;99.90;;;;;;5069715;28;20613;-68
2023/03/21 04:45:24;;;;;;;1.77;1.67;;;8.10;99.90;;;;;;5069465;28;20613;-68
2023/03/21 04:47:51;;;;;;;2.10;1.63;;;8.10;99.90;;;;;;5070186;28;20628;-67
2023/03/21 04:50:18;;;;;;;2.53;2.33;;;8.00;99.90;;;;;;5069521;28;20739;-67
2023/03/21 04:52:44;;;;;;;1.80;1.70;;;7.90;99.90;;;;;;5069510;28;20622;-67
2023/03/21 04:55:11;;;;;;;1.53;1.43;;;7.80;99.90;;;;;;5068941;28;20673;-67
2023/03/21 04:57:38;;;;;;;2.73;1.77;;;7.70;99.90;;;;;;5069284;28;20731;-68
2023/03/21 05:00:09;;;;;;;4.60;1.67;;;7.70;99.90;;;;;;5069437;28;20641;-67
2023/03/21 05:02:38;;;;;;;3.50;1.63;;;7.70;99.90;;;;;;5069405;28;20996;-67
2023/03/21 05:05:05;;;;;;;2.00;1.60;;;7.60;99.90;;;;;;5069761;28;20965;-67
2023/03/21 05:07:32;;;;;;;2.10;2.00;;;7.50;99.90;;;;;;5069436;28;20633;-68
2023/03/21 05:09:59;;;;;;;2.50;1.30;;;7.50;99.90;;;;;;5068925;28;20624;-67
2023/03/21 05:12:26;;;;;;;12.63;2.20;;;7.30;99.90;;;;;;5068714;28;21371;-67
2023/03/21 05:14:52;;;;;;;1.03;0.93;;;7.40;99.90;;;;;;5069098;28;20769;-67
2023/03/21 05:17:27;;;;;;;2.50;2.23;;;7.30;99.90;;;;;;5069165;28;21324;-68
2023/03/21 05:19:56;;;;;;;1.63;1.53;;;7.30;99.90;;;;;;5068539;28;20632;-68
2023/03/21 05:22:25;;;;;;;1.40;1.30;;;7.30;99.90;;;;;;5068848;28;20654;-68
2023/03/21 05:24:54;;;;;;;2.57;1.93;;;7.20;99.90;;;;;;5069018;28;21087;-68
2023/03/21 05:27:33;;;;;;;1.65;1.20;;;7.20;99.90;;;;;;5068951;28;20776;-68
2023/03/21 05:30:01;;;;;;;2.75;1.77;;;7.20;99.90;;;;;;5068448;28;20198;-68
2023/03/21 05:32:28;;;;;;;1.73;1.63;;;7.10;99.90;;;;;;5068574;28;20225;-68
2023/03/21 05:34:56;;;;;;;2.43;2.20;;;7.10;99.90;;;;;;5069314;28;20230;-67
2023/03/21 05:37:23;;;;;;;2.05;1.70;;;7.10;99.90;;;;;;5068356;28;20750;-68
2023/03/21 05:39:50;;;;;;;2.88;1.90;;;7.10;99.90;;;;;;5075445;28;20209;-68
2023/03/21 05:42:18;;;;;;;2.08;1.50;;;7.20;99.90;;;;;;5068547;28;20223;-70
2023/03/21 05:44:45;;;;;;;1.60;1.50;;;7.30;99.90;;;;;;5068970;28;20218;-68
2023/03/21 05:47:12;;;;;;;4.07;2.03;;;7.30;99.90;;;;;;5068540;28;20215;-68
2023/03/21 05:49:39;;;;;;;2.03;1.80;;;7.30;99.90;;;;;;5074066;28;20668;-68
2023/03/21 05:52:08;;;;;;;2.47;1.75;;;7.40;99.90;;;;;;5077066;28;20338;-68
2023/03/21 05:54:35;;;;;;;1.67;1.33;;;7.40;99.90;;;;;;5068944;28;20245;-68
2023/03/21 05:57:02;;;;;;;1.02;0.90;;;7.40;99.90;;;;;;5068101;28;21091;-67
2023/03/21 05:59:29;;;;;;;1.25;1.10;;;7.50;99.90;;;;;;5072602;28;20286;-67
2023/03/21 06:01:56;;;;;;;1.90;1.70;;;7.60;99.90;;;;;;5074289;28;20230;-68
2023/03/21 06:04:22;;;;;;;1.57;1.47;;;7.60;99.90;;;;;;5067203;28;20200;-68
2023/03/21 06:06:50;;;;;;;2.07;1.73;;;7.60;99.90;;;;;;5067649;28;21017;-67
2023/03/21 06:09:19;;;;;;;2.00;1.90;;;7.60;99.90;;;;;;5070800;28;20998;-69
2023/03/21 06:11:52;;;;;;;2.10;1.90;;;7.70;99.90;;;;;;5078198;28;20699;-67
2023/03/21 06:14:20;;;;;;;3.00;1.67;;;7.60;99.90;;;;;;5067672;28;20657;-67
2023/03/21 06:16:47;;;;;;;1.70;1.60;;;7.70;99.90;;;;;;5067502;28;20645;-69
2023/03/21 06:19:14;;;;;;;2.10;1.30;;;7.70;99.90;;;;;;5070076;28;20638;-68
2023/03/21 06:21:40;;;;;;;1.57;1.27;;;7.70;99.90;;;;;;5084259;28;20645;-67
2023/03/21 06:24:08;;;;;;;3.08;2.53;;;7.70;99.90;;;;;;5067200;28;20749;-67
2023/03/21 06:26:36;;;;;;;1.40;1.37;;;7.80;99.90;;;;;;5067036;28;20231;-68
2023/03/21 06:29:03;;;;;;;2.03;1.93;;;7.80;99.90;;;;;;5067371;28;20625;-68
2023/03/21 06:31:29;;;;;;;5.43;2.13;;;7.80;99.90;;;;;;5067567;28;21265;-68
2023/03/21 06:33:56;;;;;;;2.83;1.57;;;7.80;99.90;;;;;;5067429;28;20689;-68
2023/03/21 06:36:23;;;;;;;3.73;2.40;;;7.90;99.90;;;;;;5068019;28;20641;-68
2023/03/21 06:38:50;;;;;;;1.65;1.55;;;7.80;99.90;;;;;;5066705;28;21191;-68
2023/03/21 06:41:18;;;;;;;5.20;2.27;;;7.90;99.90;;;;;;5067519;28;20222;-68
2023/03/21 06:43:47;;;;;;;2.80;1.93;;;7.90;99.90;;;;;;5067195;28;20638;-67
2023/03/21 06:46:14;;;;;;;2.17;1.60;;;7.90;99.90;;;;;;5066988;28;20646;-67
2023/03/21 06:48:43;;;;;;;2.83;2.63;;;7.90;99.90;;;;;;5065436;28;20725;-67
2023/03/21 06:51:11;;;;;;;2.40;1.53;;;8.00;99.90;;;;;;5067305;28;20756;-67
2023/03/21 06:53:40;;;;;;;3.23;2.37;;;8.00;99.90;;;;;;5066752;28;20729;-67
2023/03/21 06:56:08;;;;;;;2.37;1.77;;;8.00;99.90;;;;;;5066858;28;20673;-67
2023/03/21 06:58:35;;;;;;;1.00;1.00;;;8.10;99.90;;;;;;5065189;28;21223;-67
2023/03/21 07:01:03;;;;;;;3.07;2.43;;;8.20;99.90;;;;;;5067340;28;20636;-67
2023/03/21 07:03:31;;;;;;;3.20;2.90;;;8.30;99.90;;;;;;5067062;28;20741;-67
2023/03/21 07:05:58;;;;;;;4.77;3.67;;;8.40;99.90;;;;;;5066387;28;20653;-68
2023/03/21 07:08:25;;;;;;;2.83;2.00;;;8.50;99.90;;;;;;5065474;28;20644;-67
2023/03/21 07:10:56;;;;;;;2.83;2.20;;;8.50;99.90;;;;;;5063877;28;20746;-67
2023/03/21 07:13:23;;;;;;;3.07;2.87;;;8.70;99.90;;;;;;5068048;28;20684;-68
2023/03/21 07:15:52;;;;;;;4.30;3.60;;;8.70;99.90;;;;;;5059370;28;21253;-68
2023/03/21 07:21:02;;;;;;;1.77;1.67;;;9.00;99.80;;;;;;5353157;22;21526;-69
2023/03/21 07:23:29;;;;;;;1.47;1.20;;;9.10;98.70;;;;;;5006364;28;20628;-69
2023/03/21 07:25:56;;;;;;;2.57;1.53;;;9.30;99.90;;;;;;5006815;28;20654;-69
2023/03/21 07:28:23;;;;;;;2.10;1.90;;;9.40;99.00;;;;;;5006744;28;20636;-69
2023/03/21 07:30:55;;;;;;;2.50;2.30;;;9.40;98.90;;;;;;5006687;28;20691;-70
2023/03/21 07:33:23;;;;;;;3.23;2.43;;;9.50;99.00;;;;;;5006950;28;20624;-69
2023/03/21 07:35:51;;;;;;;3.27;2.50;;;9.50;98.60;;;;;;5007218;28;20708;-69
2023/03/21 07:38:20;;;;;;;1.83;1.73;;;9.50;98.90;;;;;;5005848;28;20624;-71
2023/03/21 07:40:48;;;;;;;1.93;1.70;;;9.70;98.60;;;;;;5007174;28;20659;-69
2023/03/21 07:43:15;;;;;;;1.40;1.30;;;9.80;98.70;;;;;;5007247;28;20632;-70
2023/03/21 07:45:42;;;;;;;4.87;1.87;;;9.90;98.50;;;;;;5007029;28;20970;-69
2023/03/21 07:48:11;;;;;;;3.40;1.77;;;10.00;97.20;;;;;;5006331;28;21184;-69
2023/03/21 07:50:38;;;;;;;1.60;1.47;;;10.00;97.40;;;;;;5005747;28;20664;-70
2023/03/21 07:53:05;;;;;;;1.43;1.33;;;10.10;96.80;;;;;;5006723;28;20655;-70
2023/03/21 07:55:34;;;;;;;1.33;1.23;;;10.20;97.00;;;;;;5006853;28;21026;-70
2023/03/21 07:58:01;;;;;;;0.90;0.90;;;10.30;96.90;;;;;;5006309;28;20688;-70
2023/03/21 08:00:28;;;;;;;1.30;0.97;;;10.40;96.70;;;;;;5006720;28;22308;-69
2023/03/21 08:02:56;;;;;;;1.00;0.83;;;10.50;96.40;;;;;;5008162;28;20639;-70
2023/03/21 08:05:24;;;;;;;1.10;1.00;;;10.60;96.40;;;;;;5009296;28;20686;-70
2023/03/21 08:07:51;;;;;;;3.03;1.87;;;10.70;96.10;;;;;;5010302;28;20632;-69
2023/03/21 08:10:19;;;;;;;1.00;0.97;;;10.80;95.40;;;;;;5009463;28;21181;-71
2023/03/21 08:12:47;;;;;;;2.50;2.20;;;10.90;95.20;;;;;;5010459;28;20727;-69
2023/03/21 08:15:15;;;;;;;1.00;1.00;;;11.00;94.80;;;;;;5010239;28;20766;-70
2023/03/21 08:17:44;;;;;;;1.40;1.10;;;11.10;94.80;;;;;;5009661;28;20639;-70
2023/03/21 08:20:13;;;;;;;2.20;1.23;;;11.20;93.90;;;;;;5009943;28;20643;-70
2023/03/21 08:22:40;;;;;;;1.30;1.23;;;11.30;94.00;;;;;;5009775;28;20632;-70
2023/03/21 08:25:09;;;;;;;1.10;1.00;;;11.40;93.40;;;;;;5010491;28;20631;-70
2023/03/21 08:27:36;;;;;;;1.33;1.27;;;11.60;93.40;;;;;;5009908;28;20636;-70
2023/03/21 08:30:05;;;;;;;3.90;0.93;;;11.70;92.40;;;;;;5009874;28;20630;-72
2023/03/21 08:32:32;;;;;;;0.63;0.63;;;11.60;92.60;;;;;;5006826;28;20620;-71
2023/03/21 08:35:00;;;;;;;1.13;1.03;;;11.80;92.30;;;;;;5002666;28;20916;-70
2023/03/21 08:37:28;;;;;;;0.50;0.50;;;12.00;91.20;;;;;;5008743;28;20664;-71
2023/03/21 08:39:55;;;;;;;1.00;0.97;;;11.90;91.40;;;;;;5019793;28;20685;-70
2023/03/21 08:42:22;;;;;;;1.10;1.00;;;11.90;90.70;;;;;;5011854;28;20697;-71
2023/03/21 08:44:49;;;;;;;1.43;1.17;;;12.00;90.50;;;;;;5018642;28;20897;-70
2023/03/21 08:47:17;;;;;;;1.07;0.97;;;12.10;90.60;;;;;;5019873;28;20721;-70
2023/03/21 08:49:45;;;;;;;1.43;1.17;;;12.20;90.70;;;;;;5010393;28;20648;-70
2023/03/21 08:52:12;;;;;;;1.93;1.33;;;12.30;89.20;;;;;;5000111;28;20766;-70
2023/03/21 08:54:40;;;;;;;1.33;1.10;;;12.30;89.60;;;;;;5010117;28;21259;-69
2023/03/21 08:57:09;;;;;;;0.80;0.80;;;12.50;89.20;;;;;;5009905;28;20662;-69
2023/03/21 08:59:36;;;;;;;1.07;0.80;;;12.60;88.50;;;;;;4996023;28;20621;-70
2023/03/21 09:02:03;;;;;;;0.70;0.70;;;12.60;88.60;;;;;;5005377;28;20674;-70
2023/03/21 09:04:31;;;;;;;1.03;0.70;;;12.70;86.10;;;;;;5010340;28;20632;-69
2023/03/21 09:07:00;;;;;;;0.93;0.87;;;12.70;83.30;;;;;;5009841;28;20656;-70
2023/03/21 09:09:27;;;;;;;1.13;0.80;;;12.60;80.50;;;;;;5010105;28;20675;-69
2023/03/21 09:11:54;;;;;;;1.10;1.10;;;12.70;81.60;;;;;;5008991;28;20658;-70
2023/03/21 09:14:21;;;;;;;0.87;0.80;;;12.70;77.10;;;;;;5009460;28;20620;-70
2023/03/21 09:16:48;;;;;;;0.40;0.40;;;12.60;78.60;;;;;;5007911;28;20667;-70
2023/03/21 09:19:16;;;;;;;1.13;0.70;;;12.80;77.60;;;;;;5008880;28;20727;-69
2023/03/21 09:21:45;;;;;;;0.77;0.77;;;13.00;78.10;;;;;;5006922;28;20667;-69
2023/03/21 09:24:14;;;;;;;0.73;0.70;;;13.30;79.60;;;;;;5008349;28;20732;-70
2023/03/21 09:26:42;;;;;;;1.00;0.90;;;13.40;78.30;;;;;;5006499;28;21367;-70
2023/03/21 09:29:09;;;;;;;0.77;0.50;;;13.40;79.30;;;;;;5007432;28;20629;-69
2023/03/21 09:31:38;;;;;;;0.80;0.80;;;13.50;78.60;;;;;;5006891;28;21018;-70
2023/03/21 09:34:05;;;;;;;0.97;0.80;;;13.50;76.70;;;;;;5007793;28;20636;-70
2023/03/21 09:36:34;;;;;;;1.03;0.93;;;13.60;78.20;;;;;;5008633;28;20704;-70
2023/03/21 09:39:03;;;;;;;0.73;0.73;;;13.50;76.10;;;;;;5008378;28;20635;-70
2023/03/21 09:41:42;;;;;;;1.43;0.90;;;13.60;76.80;;;;;;5009175;28;20747;-70
2023/03/21 09:44:25;;;;;;;1.03;0.87;;;13.60;77.00;;;;;;5009039;28;20635;-70
2023/03/21 09:46:58;;;;;;;0.60;0.60;;;13.70;78.60;;;;;;5009045;28;20718;-70
2023/03/21 09:49:29;;;;;;;1.40;1.03;;;13.60;77.60;;;;;;5008214;28;20632;-70
2023/03/21 09:52:02;;;;;;;2.60;1.47;;;13.80;79.70;;;;;;5009624;28;20660;-69
2023/03/21 09:54:34;;;;;;;1.23;1.13;;;13.80;77.10;;;;;;5009254;28;20731;-69
2023/03/21 09:57:11;;;;;;;2.33;0.80;;;13.80;76.90;;;;;;5008587;28;20686;-70
2023/03/21 09:59:40;;;;;;;0.87;0.83;;;14.00;78.90;;;;;;5008806;28;20620;-70
2023/03/21 10:02:32;;;;;;;1.10;1.00;;;14.00;79.40;;;;;;5008300;28;21012;-69
2023/03/21 10:04:59;;;;;;;0.80;0.80;;;14.20;80.40;;;;;;5007070;28;20640;-70
2023/03/21 10:07:29;;;;;;;0.93;0.90;;;14.30;77.00;;;;;;5008545;28;20659;-70
2023/03/21 10:09:59;;;;;;;1.27;0.70;;;14.40;78.10;;;;;;5008559;28;20720;-70
2023/03/21 10:12:29;;;;;;;2.43;0.97;;;14.60;77.60;;;;;;5007745;28;20656;-70
2023/03/21 10:14:58;;;;;;;0.43;0.43;;;14.60;77.30;;;;;;5009089;28;20967;-70
2023/03/21 10:17:29;;;;;;;0.50;0.50;;;14.80;79.30;;;;;;5007777;28;20648;-70
2023/03/21 10:20:01;;;;;;;0.50;0.40;;;14.90;77.00;;;;;;5008520;28;21177;-70
2023/03/21 10:22:27;;;;;;;0.70;0.70;;;14.80;73.30;;;;;;5006646;28;20655;-70
2023/03/21 10:24:54;;;;;;;1.40;1.30;;;14.80;75.60;;;;;;5006343;28;20659;-70
2023/03/21 10:27:22;;;;;;;1.13;0.80;;;14.70;75.50;;;;;;5008108;28;20674;-70
2023/03/21 10:29:51;;;;;;;0.73;0.60;;;14.90;75.40;;;;;;5007633;28;20632;-69
2023/03/21 10:32:21;;;;;;;1.37;0.90;;;15.00;75.10;;;;;;5008141;28;20695;-71
2023/03/21 10:34:54;;;;;;;0.87;0.87;;;15.00;74.90;;;;;;5007800;28;21014;-70
2023/03/21 10:37:22;;;;;;;0.93;0.83;;;15.00;75.60;;;;;;5007656;28;20770;-70
2023/03/21 10:39:52;;;;;;;0.77;0.57;;;15.20;74.10;;;;;;5007341;28;21189;-70
2023/03/21 10:42:23;;;;;;;0.70;0.67;;;15.30;71.80;;;;;;5007693;28;20656;-71
2023/03/21 10:44:51;;;;;;;0.80;0.80;;;15.40;71.30;;;;;;5008542;28;20608;-70
2023/03/21 10:47:24;;;;;;;1.45;0.70;;;15.30;69.00;;;;;;5006947;28;21188;-71
2023/03/21 10:49:51;;;;;;;0.90;0.70;;;15.40;71.90;;;;;;5007174;28;20200;-70
2023/03/21 10:52:20;;;;;;;1.13;0.90;;;15.30;68.00;;;;;;5007370;28;20664;-72
2023/03/21 10:54:47;;;;;;;0.80;0.63;;;15.30;70.30;;;;;;5002754;28;20635;-70
2023/03/21 10:57:19;;;;;;;0.83;0.70;;;15.40;70.30;;;;;;5006778;28;20675;-70
2023/03/21 10:59:52;;;;;;;0.77;0.77;;;15.30;69.80;;;;;;5008022;28;20627;-69
2023/03/21 11:02:24;;;;;;;0.40;0.40;;;15.30;69.40;;;;;;5007662;28;20713;-70
2023/03/21 11:04:52;;;;;;;0.60;0.60;;;15.50;72.30;;;;;;5008355;28;20612;-70
2023/03/21 11:07:20;;;;;;;2.63;0.93;;;15.70;69.40;;;;;;5007518;28;20652;-70
2023/03/21 11:09:49;;;;;;;0.47;0.37;;;15.80;67.60;;;;;;5006999;28;20620;-70
2023/03/21 11:12:18;;;;;;;0.50;0.47;;;15.80;64.30;;;;;;5007100;28;20658;-70
2023/03/21 11:14:47;;;;;;;0.60;0.50;;;15.80;64.10;;;;;;5007873;28;20932;-69
2023/03/21 11:17:23;;;;;;;0.50;0.47;;;15.90;66.30;;;;;;5006689;28;21248;-70
2023/03/21 11:19:52;;;;;;;0.60;0.60;;;15.90;66.00;;;;;;4988102;28;20641;-70
2023/03/21 11:22:21;;;;;;;0.97;0.80;;;15.70;64.20;;;;;;4996632;28;20663;-72
2023/03/21 11:24:52;;;;;;;0.70;0.60;;;15.80;66.80;;;;;;5006955;28;20632;-70
2023/03/21 11:27:19;;;;;;;0.40;0.37;;;15.90;66.40;;;;;;5006732;28;20832;-70
2023/03/21 11:29:48;;;;;;;0.90;0.80;;;15.90;65.50;;;;;;5007343;28;20731;-70
2023/03/21 11:32:21;;;;;;;0.70;0.60;;;16.00;63.20;;;;;;5007771;28;20743;-69
2023/03/21 11:34:52;;;;;;;0.80;0.73;;;15.80;64.10;;;;;;5009309;28;20631;-70
2023/03/21 11:37:25;;;;;;;0.50;0.50;;;15.80;64.30;;;;;;5011554;28;20682;-70
2023/03/21 11:39:56;;;;;;;0.40;0.40;;;15.70;61.40;;;;;;5010990;28;20632;-69
2023/03/21 11:42:31;;;;;;;0.70;0.70;;;15.70;61.60;;;;;;5011533;28;20644;-70
2023/03/21 11:45:04;;;;;;;0.77;0.60;;;15.70;65.00;;;;;;5011910;28;20627;-70
2023/03/21 11:47:31;;;;;;;0.57;0.40;;;15.70;62.10;;;;;;5011226;28;20727;-69
2023/03/21 11:49:58;;;;;;;1.33;0.47;;;15.70;59.70;;;;;;5010917;28;20627;-69
2023/03/21 11:52:35;;;;;;;0.90;0.63;;;15.50;61.30;;;;;;5011433;28;21002;-69
2023/03/21 11:55:26;;;;;;;1.63;1.17;;;15.60;63.90;;;;;;5010821;28;20630;-69
2023/03/21 11:58:02;;;;;;;0.70;0.70;;;15.60;64.10;;;;;;4991950;28;20631;-70
2023/03/21 12:00:38;;;;;;;0.87;0.83;;;15.70;63.20;;;;;;5009475;28;20666;-70
2023/03/21 12:03:40;;;;;;;0.87;0.60;;;15.30;62.40;;;;;;5011165;28;20640;-70
2023/03/21 12:06:17;;;;;;;0.57;0.57;;;15.40;65.20;;;;;;5002308;28;20666;-68
2023/03/21 12:08:53;;;;;;;1.67;0.87;;;15.50;63.20;;;;;;5011141;28;21061;-69
2023/03/21 12:11:29;;;;;;;1.00;0.60;;;15.40;63.90;;;;;;5010960;28;20652;-70
2023/03/21 12:14:06;;;;;;;0.50;0.50;;;15.40;60.70;;;;;;5011029;28;20631;-68
2023/03/21 12:16:44;;;;;;;0.40;0.40;;;15.50;61.10;;;;;;5011069;28;21059;-70
2023/03/21 12:19:34;;;;;;;1.80;0.80;;;15.50;60.90;;;;;;5010201;28;20635;-70
2023/03/21 12:22:10;;;;;;;0.80;0.70;;;15.50;60.80;;;;;;5009758;28;20696;-70
2023/03/21 12:24:41;;;;;;;1.23;0.77;;;15.50;60.90;;;;;;5010832;28;21177;-70
2023/03/21 12:27:16;;;;;;;0.70;0.70;;;15.60;62.00;;;;;;5010816;28;21248;-70
2023/03/21 12:29:55;;;;;;;0.87;0.60;;;15.50;59.90;;;;;;5010148;28;20623;-70
2023/03/21 12:32:37;;;;;;;0.63;0.57;;;15.50;60.40;;;;;;5009227;28;20663;-70
2023/03/21 12:35:37;;;;;;;0.63;0.50;;;15.40;60.50;;;;;;5009744;28;20634;-69
2023/03/21 12:38:14;;;;;;;1.30;0.90;;;15.50;61.60;;;;;;5009940;28;20632;-70
2023/03/21 12:40:51;;;;;;;1.23;0.80;;;15.60;62.00;;;;;;5008102;28;20721;-70
2023/03/21 12:43:39;;;;;;;0.93;0.87;;;15.70;61.00;;;;;;5010550;28;21029;-72
2023/03/21 12:46:11;;;;;;;1.10;1.00;;;15.80;62.40;;;;;;5006833;28;20687;-69
2023/03/21 12:48:44;;;;;;;1.30;0.80;;;15.80;60.90;;;;;;5008084;28;20622;-70
2023/03/21 12:51:14;;;;;;;1.73;0.70;;;15.90;59.10;;;;;;5010371;28;21083;-70
2023/03/21 12:53:51;;;;;;;0.93;0.90;;;16.00;62.00;;;;;;5010005;28;20628;-70
2023/03/21 12:56:22;;;;;;;0.90;0.90;;;16.20;61.80;;;;;;5009816;28;20742;-71
2023/03/21 12:58:54;;;;;;;0.50;0.50;;;16.20;62.80;;;;;;5010034;28;20631;-71
2023/03/21 13:01:22;;;;;;;0.63;0.63;;;16.40;63.30;;;;;;5010186;28;20767;-70
2023/03/21 13:03:59;;;;;;;0.67;0.67;;;16.50;60.90;;;;;;5009668;28;20662;-70
2023/03/21 13:06:27;;;;;;;0.73;0.73;;;16.70;61.30;;;;;;5009832;28;20739;-70
2023/03/21 13:09:00;;;;;;;1.20;1.10;;;16.80;60.50;;;;;;5009371;28;21247;-71
2023/03/21 13:11:30;;;;;;;2.03;1.60;;;16.90;60.00;;;;;;4992616;28;20751;-70